Аэропорт: Витязево. Анапа

ICAO: URKA

METAR:
2018/07/16 19:30
URKA 161930Z 23003MPS 9999 FEW054CB 23/18 Q1005 R22/010070 TEMPO 2000 TSRA BKN007 BKN020CB RMK QFE749/0999
METAR:
2018/07/16 18:21
TAF TAF URKA 161653Z 1618/1718 25005G10MPS 9999 BKN030CB 
      TEMPO 1618/1718 VRB09G18MPS 3100 -TSRA SCT011 BKN020CB